sensor_id;sensor_type;location;lat;lon;timestamp;P1;durP1;ratioP1;P2;durP2;ratioP2
9958;SDS011;5019;48.012;7.812;2022-07-12T00:01:57;25.90;;;16.70;;
9958;SDS011;5019;48.012;7.812;2022-07-12T00:04:23;10.57;;;7.23;;
9958;SDS011;5019;48.012;7.812;2022-07-12T00:06:49;4.40;;;4.00;;
9958;SDS011;5019;48.012;7.812;2022-07-12T00:09:16;4.50;;;3.57;;
9958;SDS011;5019;48.012;7.812;2022-07-12T00:11:41;20.13;;;12.70;;
9958;SDS011;5019;48.012;7.812;2022-07-12T00:14:08;5.40;;;4.77;;
9958;SDS011;5019;48.012;7.812;2022-07-12T00:16:37;21.67;;;13.00;;
9958;SDS011;5019;48.012;7.812;2022-07-12T00:19:03;21.90;;;13.23;;
9958;SDS011;5019;48.012;7.812;2022-07-12T00:21:29;11.33;;;5.87;;
9958;SDS011;5019;48.012;7.812;2022-07-12T00:23:55;12.13;;;7.27;;
9958;SDS011;5019;48.012;7.812;2022-07-12T00:26:21;5.33;;;4.40;;
9958;SDS011;5019;48.012;7.812;2022-07-12T00:28:48;3.47;;;3.17;;
9958;SDS011;5019;48.012;7.812;2022-07-12T00:31:14;3.43;;;3.23;;
9958;SDS011;5019;48.012;7.812;2022-07-12T00:33:40;9.63;;;6.20;;
9958;SDS011;5019;48.012;7.812;2022-07-12T00:36:06;8.03;;;4.97;;
9958;SDS011;5019;48.012;7.812;2022-07-12T00:38:33;6.90;;;4.37;;
9958;SDS011;5019;48.012;7.812;2022-07-12T00:40:59;7.37;;;4.57;;
9958;SDS011;5019;48.012;7.812;2022-07-12T00:43:25;4.97;;;3.90;;
9958;SDS011;5019;48.012;7.812;2022-07-12T00:45:52;6.03;;;4.67;;
9958;SDS011;5019;48.012;7.812;2022-07-12T00:48:18;5.30;;;3.97;;
9958;SDS011;5019;48.012;7.812;2022-07-12T00:50:45;6.07;;;4.90;;
9958;SDS011;5019;48.012;7.812;2022-07-12T00:53:11;8.23;;;4.07;;
9958;SDS011;5019;48.012;7.812;2022-07-12T00:55:38;5.13;;;4.57;;
9958;SDS011;5019;48.012;7.812;2022-07-12T00:58:04;6.63;;;4.07;;
9958;SDS011;5019;48.012;7.812;2022-07-12T01:00:30;6.33;;;4.73;;
9958;SDS011;5019;48.012;7.812;2022-07-12T01:02:57;7.03;;;5.73;;
9958;SDS011;5019;48.012;7.812;2022-07-12T01:05:23;4.60;;;4.07;;
9958;SDS011;5019;48.012;7.812;2022-07-12T01:07:49;4.40;;;4.10;;
9958;SDS011;5019;48.012;7.812;2022-07-12T01:10:16;5.90;;;4.80;;
9958;SDS011;5019;48.012;7.812;2022-07-12T01:12:42;6.20;;;5.43;;
9958;SDS011;5019;48.012;7.812;2022-07-12T01:15:08;7.10;;;4.30;;
9958;SDS011;5019;48.012;7.812;2022-07-12T01:17:35;7.80;;;4.40;;
9958;SDS011;5019;48.012;7.812;2022-07-12T01:20:02;5.93;;;4.80;;
9958;SDS011;5019;48.012;7.812;2022-07-12T01:22:30;6.40;;;5.57;;
9958;SDS011;5019;48.012;7.812;2022-07-12T01:24:56;8.57;;;7.70;;
9958;SDS011;5019;48.012;7.812;2022-07-12T01:27:22;5.20;;;4.63;;
9958;SDS011;5019;48.012;7.812;2022-07-12T01:29:49;28.27;;;14.30;;
9958;SDS011;5019;48.012;7.812;2022-07-12T01:32:15;7.07;;;5.30;;
9958;SDS011;5019;48.012;7.812;2022-07-12T01:34:55;20.90;;;9.93;;
9958;SDS011;5019;48.012;7.812;2022-07-12T01:37:21;21.53;;;11.50;;
9958;SDS011;5019;48.012;7.812;2022-07-12T01:39:49;12.43;;;8.17;;
9958;SDS011;5019;48.012;7.812;2022-07-12T01:42:15;7.83;;;6.93;;
9958;SDS011;5019;48.012;7.812;2022-07-12T01:44:41;8.03;;;4.50;;
9958;SDS011;5019;48.012;7.812;2022-07-12T01:47:07;6.73;;;4.60;;
9958;SDS011;5019;48.012;7.812;2022-07-12T01:49:34;11.20;;;4.37;;
9958;SDS011;5019;48.012;7.812;2022-07-12T01:52:00;13.67;;;7.37;;
9958;SDS011;5019;48.012;7.812;2022-07-12T01:54:27;6.50;;;4.53;;
9958;SDS011;5019;48.012;7.812;2022-07-12T01:56:53;6.73;;;5.20;;
9958;SDS011;5019;48.012;7.812;2022-07-12T01:59:20;5.20;;;4.70;;
9958;SDS011;5019;48.012;7.812;2022-07-12T02:01:46;10.33;;;4.23;;
9958;SDS011;5019;48.012;7.812;2022-07-12T02:04:15;8.40;;;5.90;;
9958;SDS011;5019;48.012;7.812;2022-07-12T02:06:42;9.83;;;5.50;;
9958;SDS011;5019;48.012;7.812;2022-07-12T02:09:09;4.83;;;4.43;;
9958;SDS011;5019;48.012;7.812;2022-07-12T02:11:35;7.30;;;5.33;;
9958;SDS011;5019;48.012;7.812;2022-07-12T02:14:01;7.87;;;5.13;;
9958;SDS011;5019;48.012;7.812;2022-07-12T02:16:27;5.33;;;4.60;;
9958;SDS011;5019;48.012;7.812;2022-07-12T02:18:53;4.50;;;4.10;;
9958;SDS011;5019;48.012;7.812;2022-07-12T02:21:19;5.10;;;4.30;;
9958;SDS011;5019;48.012;7.812;2022-07-12T02:23:45;5.63;;;4.90;;
9958;SDS011;5019;48.012;7.812;2022-07-12T02:26:11;4.97;;;4.47;;
9958;SDS011;5019;48.012;7.812;2022-07-12T02:28:37;5.47;;;4.93;;
9958;SDS011;5019;48.012;7.812;2022-07-12T02:31:03;5.77;;;4.47;;
9958;SDS011;5019;48.012;7.812;2022-07-12T02:33:30;6.40;;;5.07;;
9958;SDS011;5019;48.012;7.812;2022-07-12T02:35:56;4.70;;;4.30;;
9958;SDS011;5019;48.012;7.812;2022-07-12T02:38:22;4.77;;;4.27;;
9958;SDS011;5019;48.012;7.812;2022-07-12T02:40:48;5.37;;;4.97;;
9958;SDS011;5019;48.012;7.812;2022-07-12T02:45:46;11.37;;;6.20;;
9958;SDS011;5019;48.012;7.812;2022-07-12T02:48:12;9.73;;;7.10;;
9958;SDS011;5019;48.012;7.812;2022-07-12T02:50:39;15.03;;;7.37;;
9958;SDS011;5019;48.012;7.812;2022-07-12T02:53:05;7.33;;;6.40;;
9958;SDS011;5019;48.012;7.812;2022-07-12T02:55:31;5.20;;;4.47;;
9958;SDS011;5019;48.012;7.812;2022-07-12T02:57:57;17.10;;;7.80;;
9958;SDS011;5019;48.012;7.812;2022-07-12T03:00:23;14.50;;;7.97;;
9958;SDS011;5019;48.012;7.812;2022-07-12T03:02:49;12.73;;;8.40;;
9958;SDS011;5019;48.012;7.812;2022-07-12T03:05:15;8.47;;;5.90;;
9958;SDS011;5019;48.012;7.812;2022-07-12T03:07:41;6.33;;;5.57;;
9958;SDS011;5019;48.012;7.812;2022-07-12T03:10:08;5.97;;;5.13;;
9958;SDS011;5019;48.012;7.812;2022-07-12T03:12:34;6.63;;;4.73;;
9958;SDS011;5019;48.012;7.812;2022-07-12T03:15:00;5.90;;;5.30;;
9958;SDS011;5019;48.012;7.812;2022-07-12T03:17:26;6.87;;;5.77;;
9958;SDS011;5019;48.012;7.812;2022-07-12T03:19:52;7.57;;;5.43;;
9958;SDS011;5019;48.012;7.812;2022-07-12T03:22:18;7.83;;;5.57;;
9958;SDS011;5019;48.012;7.812;2022-07-12T03:24:44;6.13;;;4.83;;
9958;SDS011;5019;48.012;7.812;2022-07-12T03:27:10;5.20;;;4.70;;
9958;SDS011;5019;48.012;7.812;2022-07-12T03:29:36;6.67;;;5.37;;
9958;SDS011;5019;48.012;7.812;2022-07-12T03:32:02;6.10;;;5.37;;
9958;SDS011;5019;48.012;7.812;2022-07-12T03:34:29;6.50;;;5.50;;
9958;SDS011;5019;48.012;7.812;2022-07-12T03:36:55;5.93;;;5.33;;
9958;SDS011;5019;48.012;7.812;2022-07-12T03:39:21;6.33;;;5.43;;
9958;SDS011;5019;48.012;7.812;2022-07-12T03:41:47;5.60;;;4.37;;
9958;SDS011;5019;48.012;7.812;2022-07-12T03:44:13;12.50;;;5.13;;
9958;SDS011;5019;48.012;7.812;2022-07-12T03:46:39;6.50;;;4.60;;
9958;SDS011;5019;48.012;7.812;2022-07-12T03:49:05;7.20;;;5.37;;
9958;SDS011;5019;48.012;7.812;2022-07-12T03:51:31;6.37;;;5.00;;
9958;SDS011;5019;48.012;7.812;2022-07-12T03:53:57;5.30;;;4.67;;
9958;SDS011;5019;48.012;7.812;2022-07-12T03:56:24;6.90;;;5.37;;
9958;SDS011;5019;48.012;7.812;2022-07-12T03:59:08;7.73;;;5.10;;
9958;SDS011;5019;48.012;7.812;2022-07-12T04:01:34;10.90;;;6.00;;
9958;SDS011;5019;48.012;7.812;2022-07-12T04:04:00;10.90;;;5.00;;
9958;SDS011;5019;48.012;7.812;2022-07-12T04:06:27;6.27;;;5.40;;
9958;SDS011;5019;48.012;7.812;2022-07-12T04:08:53;5.80;;;5.30;;
9958;SDS011;5019;48.012;7.812;2022-07-12T04:11:19;5.90;;;5.30;;
9958;SDS011;5019;48.012;7.812;2022-07-12T04:13:45;7.50;;;5.37;;
9958;SDS011;5019;48.012;7.812;2022-07-12T04:16:11;11.13;;;5.30;;
9958;SDS011;5019;48.012;7.812;2022-07-12T04:18:37;6.87;;;4.70;;
9958;SDS011;5019;48.012;7.812;2022-07-12T04:21:04;5.10;;;4.60;;
9958;SDS011;5019;48.012;7.812;2022-07-12T04:23:30;6.43;;;4.70;;
9958;SDS011;5019;48.012;7.812;2022-07-12T04:25:56;5.70;;;5.20;;
9958;SDS011;5019;48.012;7.812;2022-07-12T04:28:22;9.87;;;4.60;;
9958;SDS011;5019;48.012;7.812;2022-07-12T04:30:48;5.30;;;4.67;;
9958;SDS011;5019;48.012;7.812;2022-07-12T04:33:14;6.90;;;5.00;;
9958;SDS011;5019;48.012;7.812;2022-07-12T04:35:40;5.80;;;5.20;;
9958;SDS011;5019;48.012;7.812;2022-07-12T04:38:07;8.93;;;5.60;;
9958;SDS011;5019;48.012;7.812;2022-07-12T04:40:33;6.87;;;5.00;;
9958;SDS011;5019;48.012;7.812;2022-07-12T04:42:59;9.03;;;4.93;;
9958;SDS011;5019;48.012;7.812;2022-07-12T04:45:25;6.07;;;5.10;;
9958;SDS011;5019;48.012;7.812;2022-07-12T04:47:51;9.23;;;7.47;;
9958;SDS011;5019;48.012;7.812;2022-07-12T04:50:17;7.43;;;6.70;;
9958;SDS011;5019;48.012;7.812;2022-07-12T04:52:43;6.83;;;5.30;;
9958;SDS011;5019;48.012;7.812;2022-07-12T04:55:09;6.77;;;5.97;;
9958;SDS011;5019;48.012;7.812;2022-07-12T04:57:35;12.10;;;6.30;;
9958;SDS011;5019;48.012;7.812;2022-07-12T05:00:05;42.17;;;16.17;;
9958;SDS011;5019;48.012;7.812;2022-07-12T05:02:32;16.30;;;9.30;;
9958;SDS011;5019;48.012;7.812;2022-07-12T05:04:58;7.47;;;5.30;;
9958;SDS011;5019;48.012;7.812;2022-07-12T05:07:24;7.03;;;5.67;;
9958;SDS011;5019;48.012;7.812;2022-07-12T05:09:50;8.00;;;5.27;;
9958;SDS011;5019;48.012;7.812;2022-07-12T05:12:16;6.53;;;5.03;;
9958;SDS011;5019;48.012;7.812;2022-07-12T05:14:42;9.80;;;5.73;;
9958;SDS011;5019;48.012;7.812;2022-07-12T05:17:09;12.10;;;6.97;;
9958;SDS011;5019;48.012;7.812;2022-07-12T05:19:36;8.33;;;6.57;;
9958;SDS011;5019;48.012;7.812;2022-07-12T05:22:02;5.53;;;5.03;;
9958;SDS011;5019;48.012;7.812;2022-07-12T05:24:28;5.40;;;4.90;;
9958;SDS011;5019;48.012;7.812;2022-07-12T05:26:54;5.70;;;5.10;;
9958;SDS011;5019;48.012;7.812;2022-07-12T05:29:20;6.87;;;5.27;;
9958;SDS011;5019;48.012;7.812;2022-07-12T05:31:46;12.63;;;7.00;;
9958;SDS011;5019;48.012;7.812;2022-07-12T05:34:12;6.20;;;5.60;;
9958;SDS011;5019;48.012;7.812;2022-07-12T05:36:39;6.13;;;5.53;;
9958;SDS011;5019;48.012;7.812;2022-07-12T05:39:05;9.47;;;5.67;;
9958;SDS011;5019;48.012;7.812;2022-07-12T05:41:31;6.17;;;5.57;;
9958;SDS011;5019;48.012;7.812;2022-07-12T05:43:57;4.90;;;4.50;;
9958;SDS011;5019;48.012;7.812;2022-07-12T05:46:23;6.93;;;5.53;;
9958;SDS011;5019;48.012;7.812;2022-07-12T05:48:49;5.83;;;5.33;;
9958;SDS011;5019;48.012;7.812;2022-07-12T05:51:15;9.67;;;5.27;;
9958;SDS011;5019;48.012;7.812;2022-07-12T05:54:00;7.53;;;4.77;;
9958;SDS011;5019;48.012;7.812;2022-07-12T05:56:26;4.80;;;4.30;;
9958;SDS011;5019;48.012;7.812;2022-07-12T05:58:52;5.80;;;5.20;;
9958;SDS011;5019;48.012;7.812;2022-07-12T06:01:18;7.67;;;4.20;;
9958;SDS011;5019;48.012;7.812;2022-07-12T06:03:44;6.53;;;3.93;;
9958;SDS011;5019;48.012;7.812;2022-07-12T06:06:11;5.70;;;5.20;;
9958;SDS011;5019;48.012;7.812;2022-07-12T06:08:37;7.03;;;5.20;;
9958;SDS011;5019;48.012;7.812;2022-07-12T06:11:04;10.20;;;6.07;;
9958;SDS011;5019;48.012;7.812;2022-07-12T06:13:30;5.83;;;5.23;;
9958;SDS011;5019;48.012;7.812;2022-07-12T06:15:56;17.33;;;9.00;;
9958;SDS011;5019;48.012;7.812;2022-07-12T06:18:22;7.13;;;4.40;;
9958;SDS011;5019;48.012;7.812;2022-07-12T06:20:48;4.80;;;4.23;;
9958;SDS011;5019;48.012;7.812;2022-07-12T06:23:15;6.37;;;4.20;;
9958;SDS011;5019;48.012;7.812;2022-07-12T06:25:41;4.30;;;3.90;;
9958;SDS011;5019;48.012;7.812;2022-07-12T06:28:07;5.03;;;4.40;;
9958;SDS011;5019;48.012;7.812;2022-07-12T06:30:33;4.40;;;3.70;;
9958;SDS011;5019;48.012;7.812;2022-07-12T06:32:59;4.33;;;3.93;;
9958;SDS011;5019;48.012;7.812;2022-07-12T06:35:25;5.50;;;4.03;;
9958;SDS011;5019;48.012;7.812;2022-07-12T06:37:52;4.93;;;4.50;;
9958;SDS011;5019;48.012;7.812;2022-07-12T06:40:18;4.90;;;4.40;;
9958;SDS011;5019;48.012;7.812;2022-07-12T06:42:44;5.53;;;4.27;;
9958;SDS011;5019;48.012;7.812;2022-07-12T06:45:10;4.50;;;4.10;;
9958;SDS011;5019;48.012;7.812;2022-07-12T06:47:36;6.23;;;3.80;;
9958;SDS011;5019;48.012;7.812;2022-07-12T06:50:03;4.80;;;4.30;;
9958;SDS011;5019;48.012;7.812;2022-07-12T06:52:29;5.40;;;3.80;;
9958;SDS011;5019;48.012;7.812;2022-07-12T06:54:55;8.20;;;4.00;;
9958;SDS011;5019;48.012;7.812;2022-07-12T06:57:21;4.83;;;4.27;;
9958;SDS011;5019;48.012;7.812;2022-07-12T06:59:48;4.30;;;3.83;;
9958;SDS011;5019;48.012;7.812;2022-07-12T07:02:14;3.93;;;3.63;;
9958;SDS011;5019;48.012;7.812;2022-07-12T07:04:40;7.93;;;4.10;;
9958;SDS011;5019;48.012;7.812;2022-07-12T07:07:06;4.40;;;3.60;;
9958;SDS011;5019;48.012;7.812;2022-07-12T07:09:32;4.53;;;4.03;;
9958;SDS011;5019;48.012;7.812;2022-07-12T07:11:59;5.60;;;4.00;;
9958;SDS011;5019;48.012;7.812;2022-07-12T07:14:25;3.70;;;3.37;;
9958;SDS011;5019;48.012;7.812;2022-07-12T07:16:55;5.50;;;3.40;;
9958;SDS011;5019;48.012;7.812;2022-07-12T07:19:21;3.70;;;3.37;;
9958;SDS011;5019;48.012;7.812;2022-07-12T07:21:51;4.00;;;2.87;;
9958;SDS011;5019;48.012;7.812;2022-07-12T07:24:19;5.60;;;3.37;;
9958;SDS011;5019;48.012;7.812;2022-07-12T07:26:45;4.17;;;3.47;;
9958;SDS011;5019;48.012;7.812;2022-07-12T07:29:11;5.43;;;3.27;;
9958;SDS011;5019;48.012;7.812;2022-07-12T07:31:55;6.80;;;4.30;;
9958;SDS011;5019;48.012;7.812;2022-07-12T07:34:22;3.27;;;2.97;;
9958;SDS011;5019;48.012;7.812;2022-07-12T07:36:49;5.50;;;3.60;;
9958;SDS011;5019;48.012;7.812;2022-07-12T07:39:15;4.87;;;4.07;;
9958;SDS011;5019;48.012;7.812;2022-07-12T07:41:41;4.30;;;3.60;;
9958;SDS011;5019;48.012;7.812;2022-07-12T07:44:07;3.10;;;2.80;;
9958;SDS011;5019;48.012;7.812;2022-07-12T07:46:33;4.00;;;3.60;;
9958;SDS011;5019;48.012;7.812;2022-07-12T07:48:59;3.50;;;3.20;;
9958;SDS011;5019;48.012;7.812;2022-07-12T07:51:25;8.63;;;3.30;;
9958;SDS011;5019;48.012;7.812;2022-07-12T07:53:51;3.90;;;3.10;;
9958;SDS011;5019;48.012;7.812;2022-07-12T07:56:17;3.60;;;3.30;;
9958;SDS011;5019;48.012;7.812;2022-07-12T07:58:43;3.50;;;3.00;;
9958;SDS011;5019;48.012;7.812;2022-07-12T08:01:09;4.03;;;3.03;;
9958;SDS011;5019;48.012;7.812;2022-07-12T08:03:35;3.53;;;3.17;;
9958;SDS011;5019;48.012;7.812;2022-07-12T08:06:01;3.00;;;2.80;;
9958;SDS011;5019;48.012;7.812;2022-07-12T08:08:27;3.10;;;2.43;;
9958;SDS011;5019;48.012;7.812;2022-07-12T08:10:54;2.80;;;2.60;;
9958;SDS011;5019;48.012;7.812;2022-07-12T08:13:20;3.47;;;2.70;;
9958;SDS011;5019;48.012;7.812;2022-07-12T08:15:46;3.50;;;2.93;;
9958;SDS011;5019;48.012;7.812;2022-07-12T08:18:12;5.20;;;2.40;;
9958;SDS011;5019;48.012;7.812;2022-07-12T08:20:38;2.90;;;2.30;;
9958;SDS011;5019;48.012;7.812;2022-07-12T08:23:04;3.63;;;2.70;;
9958;SDS011;5019;48.012;7.812;2022-07-12T08:25:30;2.93;;;2.63;;
9958;SDS011;5019;48.012;7.812;2022-07-12T08:27:56;2.57;;;2.37;;
9958;SDS011;5019;48.012;7.812;2022-07-12T08:30:22;3.37;;;2.20;;
9958;SDS011;5019;48.012;7.812;2022-07-12T08:32:48;4.33;;;2.47;;
9958;SDS011;5019;48.012;7.812;2022-07-12T08:35:15;2.83;;;2.60;;
9958;SDS011;5019;48.012;7.812;2022-07-12T08:37:41;3.03;;;2.73;;
9958;SDS011;5019;48.012;7.812;2022-07-12T08:40:07;9.60;;;2.77;;
9958;SDS011;5019;48.012;7.812;2022-07-12T08:42:34;3.00;;;2.80;;
9958;SDS011;5019;48.012;7.812;2022-07-12T08:45:00;5.20;;;2.70;;
9958;SDS011;5019;48.012;7.812;2022-07-12T08:47:26;2.77;;;2.57;;
9958;SDS011;5019;48.012;7.812;2022-07-12T08:50:12;5.10;;;2.13;;
9958;SDS011;5019;48.012;7.812;2022-07-12T08:52:39;2.87;;;2.67;;
9958;SDS011;5019;48.012;7.812;2022-07-12T08:58:03;3.03;;;2.83;;
9958;SDS011;5019;48.012;7.812;2022-07-12T09:00:33;3.10;;;2.70;;
9958;SDS011;5019;48.012;7.812;2022-07-12T09:03:00;3.70;;;3.00;;
9958;SDS011;5019;48.012;7.812;2022-07-12T09:05:28;4.13;;;2.40;;
9958;SDS011;5019;48.012;7.812;2022-07-12T09:08:06;3.10;;;2.33;;
9958;SDS011;5019;48.012;7.812;2022-07-12T09:10:33;2.83;;;2.63;;
9958;SDS011;5019;48.012;7.812;2022-07-12T09:12:59;4.50;;;2.80;;
9958;SDS011;5019;48.012;7.812;2022-07-12T09:15:25;2.23;;;2.03;;
9958;SDS011;5019;48.012;7.812;2022-07-12T09:20:29;3.30;;;3.00;;
9958;SDS011;5019;48.012;7.812;2022-07-12T09:22:59;2.50;;;2.30;;
9958;SDS011;5019;48.012;7.812;2022-07-12T09:25:26;6.50;;;2.40;;
9958;SDS011;5019;48.012;7.812;2022-07-12T09:27:56;3.20;;;2.40;;
9958;SDS011;5019;48.012;7.812;2022-07-12T09:30:25;2.60;;;2.40;;
9958;SDS011;5019;48.012;7.812;2022-07-12T09:35:37;2.50;;;2.33;;
9958;SDS011;5019;48.012;7.812;2022-07-12T09:38:21;2.90;;;2.70;;
9958;SDS011;5019;48.012;7.812;2022-07-12T09:40:48;3.60;;;3.30;;
9958;SDS011;5019;48.012;7.812;2022-07-12T09:43:14;2.40;;;2.20;;
9958;SDS011;5019;48.012;7.812;2022-07-12T09:45:40;3.20;;;2.90;;
9958;SDS011;5019;48.012;7.812;2022-07-12T09:48:08;3.20;;;2.90;;
9958;SDS011;5019;48.012;7.812;2022-07-12T09:50:36;4.80;;;2.50;;
9958;SDS011;5019;48.012;7.812;2022-07-12T09:53:04;2.93;;;2.63;;
9958;SDS011;5019;48.012;7.812;2022-07-12T09:55:30;4.90;;;3.13;;
9958;SDS011;5019;48.012;7.812;2022-07-12T09:57:59;2.93;;;2.73;;
9958;SDS011;5019;48.012;7.812;2022-07-12T10:00:26;4.60;;;2.97;;
9958;SDS011;5019;48.012;7.812;2022-07-12T10:02:52;4.20;;;3.07;;
9958;SDS011;5019;48.012;7.812;2022-07-12T10:05:20;3.67;;;2.60;;
9958;SDS011;5019;48.012;7.812;2022-07-12T10:07:46;3.77;;;3.47;;
9958;SDS011;5019;48.012;7.812;2022-07-12T10:10:13;2.47;;;2.30;;
9958;SDS011;5019;48.012;7.812;2022-07-12T10:12:39;3.40;;;3.00;;
9958;SDS011;5019;48.012;7.812;2022-07-12T10:15:09;3.23;;;2.97;;
9958;SDS011;5019;48.012;7.812;2022-07-12T10:17:39;2.87;;;2.57;;
9958;SDS011;5019;48.012;7.812;2022-07-12T10:20:20;2.80;;;2.60;;
9958;SDS011;5019;48.012;7.812;2022-07-12T10:22:55;5.10;;;3.33;;
9958;SDS011;5019;48.012;7.812;2022-07-12T10:25:31;2.67;;;2.43;;
9958;SDS011;5019;48.012;7.812;2022-07-12T10:27:58;2.60;;;2.40;;
9958;SDS011;5019;48.012;7.812;2022-07-12T10:30:24;3.67;;;3.30;;
9958;SDS011;5019;48.012;7.812;2022-07-12T10:32:54;2.10;;;2.00;;
9958;SDS011;5019;48.012;7.812;2022-07-12T10:35:23;3.27;;;3.00;;
9958;SDS011;5019;48.012;7.812;2022-07-12T10:40:34;6.50;;;2.87;;
9958;SDS011;5019;48.012;7.812;2022-07-12T10:45:34;3.53;;;2.80;;
9958;SDS011;5019;48.012;7.812;2022-07-12T10:48:02;3.10;;;2.90;;
9958;SDS011;5019;48.012;7.812;2022-07-12T10:58:35;3.07;;;2.87;;
9958;SDS011;5019;48.012;7.812;2022-07-12T11:01:02;3.20;;;2.60;;
9958;SDS011;5019;48.012;7.812;2022-07-12T11:03:41;2.67;;;2.47;;
9958;SDS011;5019;48.012;7.812;2022-07-12T11:06:08;4.70;;;2.50;;
9958;SDS011;5019;48.012;7.812;2022-07-12T11:11:12;2.80;;;2.60;;
9958;SDS011;5019;48.012;7.812;2022-07-12T11:13:38;2.97;;;2.77;;
9958;SDS011;5019;48.012;7.812;2022-07-12T11:16:04;3.30;;;3.00;;
9958;SDS011;5019;48.012;7.812;2022-07-12T11:18:31;3.00;;;2.80;;
9958;SDS011;5019;48.012;7.812;2022-07-12T11:20:58;2.47;;;2.37;;
9958;SDS011;5019;48.012;7.812;2022-07-12T11:23:24;2.67;;;2.50;;
9958;SDS011;5019;48.012;7.812;2022-07-12T11:25:53;2.60;;;2.37;;
9958;SDS011;5019;48.012;7.812;2022-07-12T11:28:20;6.40;;;2.70;;
9958;SDS011;5019;48.012;7.812;2022-07-12T11:30:49;2.70;;;2.40;;
9958;SDS011;5019;48.012;7.812;2022-07-12T11:33:16;3.73;;;2.60;;
9958;SDS011;5019;48.012;7.812;2022-07-12T11:35:45;5.07;;;2.67;;
9958;SDS011;5019;48.012;7.812;2022-07-12T11:38:11;2.67;;;2.47;;
9958;SDS011;5019;48.012;7.812;2022-07-12T11:40:38;3.90;;;2.43;;
9958;SDS011;5019;48.012;7.812;2022-07-12T11:43:04;4.30;;;2.30;;
9958;SDS011;5019;48.012;7.812;2022-07-12T11:45:31;2.67;;;2.47;;
9958;SDS011;5019;48.012;7.812;2022-07-12T11:47:58;3.20;;;2.30;;
9958;SDS011;5019;48.012;7.812;2022-07-12T11:50:24;2.73;;;2.53;;
9958;SDS011;5019;48.012;7.812;2022-07-12T11:52:50;2.80;;;2.60;;
9958;SDS011;5019;48.012;7.812;2022-07-12T11:55:17;2.50;;;2.30;;
9958;SDS011;5019;48.012;7.812;2022-07-12T11:57:43;4.77;;;3.07;;
9958;SDS011;5019;48.012;7.812;2022-07-12T12:02:39;2.87;;;2.70;;
9958;SDS011;5019;48.012;7.812;2022-07-12T12:05:05;2.90;;;2.30;;
9958;SDS011;5019;48.012;7.812;2022-07-12T12:07:31;2.70;;;2.50;;
9958;SDS011;5019;48.012;7.812;2022-07-12T12:10:04;2.57;;;2.37;;
9958;SDS011;5019;48.012;7.812;2022-07-12T12:12:46;6.40;;;3.13;;
9958;SDS011;5019;48.012;7.812;2022-07-12T12:15:16;2.60;;;2.50;;
9958;SDS011;5019;48.012;7.812;2022-07-12T12:17:46;2.40;;;2.30;;
9958;SDS011;5019;48.012;7.812;2022-07-12T12:20:17;2.87;;;2.23;;
9958;SDS011;5019;48.012;7.812;2022-07-12T12:22:45;3.00;;;2.37;;
9958;SDS011;5019;48.012;7.812;2022-07-12T12:25:11;2.70;;;2.50;;
9958;SDS011;5019;48.012;7.812;2022-07-12T12:27:40;2.93;;;2.73;;
9958;SDS011;5019;48.012;7.812;2022-07-12T12:30:07;2.67;;;2.47;;
9958;SDS011;5019;48.012;7.812;2022-07-12T12:35:19;4.20;;;2.60;;
9958;SDS011;5019;48.012;7.812;2022-07-12T12:37:53;4.50;;;2.60;;
9958;SDS011;5019;48.012;7.812;2022-07-12T12:40:23;2.63;;;2.43;;
9958;SDS011;5019;48.012;7.812;2022-07-12T12:42:50;2.07;;;1.97;;
9958;SDS011;5019;48.012;7.812;2022-07-12T12:45:16;2.47;;;2.30;;
9958;SDS011;5019;48.012;7.812;2022-07-12T12:50:45;2.70;;;2.23;;
9958;SDS011;5019;48.012;7.812;2022-07-12T12:53:15;3.20;;;2.10;;
9958;SDS011;5019;48.012;7.812;2022-07-12T12:55:42;2.80;;;2.50;;
9958;SDS011;5019;48.012;7.812;2022-07-12T12:58:08;2.27;;;2.00;;
9958;SDS011;5019;48.012;7.812;2022-07-12T13:00:36;2.67;;;2.37;;
9958;SDS011;5019;48.012;7.812;2022-07-12T13:03:03;2.53;;;2.33;;
9958;SDS011;5019;48.012;7.812;2022-07-12T13:05:30;3.80;;;2.30;;
9958;SDS011;5019;48.012;7.812;2022-07-12T13:07:56;3.07;;;2.67;;
9958;SDS011;5019;48.012;7.812;2022-07-12T13:10:22;2.17;;;2.07;;
9958;SDS011;5019;48.012;7.812;2022-07-12T13:12:49;2.97;;;2.67;;
9958;SDS011;5019;48.012;7.812;2022-07-12T13:15:16;2.13;;;2.00;;
9958;SDS011;5019;48.012;7.812;2022-07-12T13:17:42;3.57;;;2.37;;
9958;SDS011;5019;48.012;7.812;2022-07-12T13:20:08;4.60;;;2.80;;
9958;SDS011;5019;48.012;7.812;2022-07-12T13:22:35;2.40;;;2.20;;
9958;SDS011;5019;48.012;7.812;2022-07-12T13:25:02;2.20;;;2.00;;
9958;SDS011;5019;48.012;7.812;2022-07-12T13:27:28;2.47;;;2.27;;
9958;SDS011;5019;48.012;7.812;2022-07-12T13:29:55;3.30;;;3.00;;
9958;SDS011;5019;48.012;7.812;2022-07-12T13:32:21;4.60;;;2.10;;
9958;SDS011;5019;48.012;7.812;2022-07-12T13:34:47;2.20;;;2.10;;
9958;SDS011;5019;48.012;7.812;2022-07-12T13:37:13;2.27;;;2.17;;
9958;SDS011;5019;48.012;7.812;2022-07-12T13:39:39;2.00;;;1.90;;
9958;SDS011;5019;48.012;7.812;2022-07-12T13:42:25;2.10;;;2.00;;
9958;SDS011;5019;48.012;7.812;2022-07-12T13:44:51;2.80;;;2.60;;
9958;SDS011;5019;48.012;7.812;2022-07-12T13:47:20;2.40;;;2.20;;
9958;SDS011;5019;48.012;7.812;2022-07-12T13:49:49;3.73;;;1.90;;
9958;SDS011;5019;48.012;7.812;2022-07-12T13:52:15;2.30;;;2.10;;
9958;SDS011;5019;48.012;7.812;2022-07-12T13:54:42;2.37;;;2.17;;
9958;SDS011;5019;48.012;7.812;2022-07-12T13:57:09;2.37;;;2.20;;
9958;SDS011;5019;48.012;7.812;2022-07-12T13:59:35;2.83;;;2.17;;
9958;SDS011;5019;48.012;7.812;2022-07-12T14:02:01;2.73;;;2.07;;
9958;SDS011;5019;48.012;7.812;2022-07-12T14:04:27;1.83;;;1.73;;
9958;SDS011;5019;48.012;7.812;2022-07-12T14:06:53;2.40;;;2.30;;
9958;SDS011;5019;48.012;7.812;2022-07-12T14:09:19;3.37;;;2.07;;
9958;SDS011;5019;48.012;7.812;2022-07-12T14:11:45;2.00;;;1.90;;
9958;SDS011;5019;48.012;7.812;2022-07-12T14:14:11;5.05;;;2.75;;
9958;SDS011;5019;48.012;7.812;2022-07-12T14:19:05;2.60;;;2.10;;
9958;SDS011;5019;48.012;7.812;2022-07-12T14:21:31;3.53;;;1.90;;
9958;SDS011;5019;48.012;7.812;2022-07-12T14:23:57;2.13;;;1.97;;
9958;SDS011;5019;48.012;7.812;2022-07-12T14:26:27;1.90;;;1.80;;
9958;SDS011;5019;48.012;7.812;2022-07-12T14:28:53;1.90;;;1.40;;
9958;SDS011;5019;48.012;7.812;2022-07-12T14:31:19;2.80;;;2.17;;
9958;SDS011;5019;48.012;7.812;2022-07-12T14:33:45;2.70;;;2.00;;
9958;SDS011;5019;48.012;7.812;2022-07-12T14:36:11;1.93;;;1.83;;
9958;SDS011;5019;48.012;7.812;2022-07-12T14:38:37;2.00;;;1.90;;
9958;SDS011;5019;48.012;7.812;2022-07-12T14:41:03;2.07;;;1.73;;
9958;SDS011;5019;48.012;7.812;2022-07-12T14:43:29;2.00;;;1.90;;
9958;SDS011;5019;48.012;7.812;2022-07-12T14:45:55;1.90;;;1.67;;
9958;SDS011;5019;48.012;7.812;2022-07-12T14:48:21;1.90;;;1.80;;
9958;SDS011;5019;48.012;7.812;2022-07-12T14:50:47;3.10;;;1.60;;
9958;SDS011;5019;48.012;7.812;2022-07-12T14:53:13;3.50;;;2.17;;
9958;SDS011;5019;48.012;7.812;2022-07-12T14:55:39;1.83;;;1.63;;
9958;SDS011;5019;48.012;7.812;2022-07-12T14:58:06;1.77;;;1.40;;
9958;SDS011;5019;48.012;7.812;2022-07-12T15:00:34;1.70;;;1.60;;
9958;SDS011;5019;48.012;7.812;2022-07-12T15:03:00;4.13;;;1.90;;
9958;SDS011;5019;48.012;7.812;2022-07-12T15:05:26;1.60;;;1.50;;
9958;SDS011;5019;48.012;7.812;2022-07-12T15:07:52;4.30;;;1.80;;
9958;SDS011;5019;48.012;7.812;2022-07-12T15:10:19;2.43;;;1.70;;
9958;SDS011;5019;48.012;7.812;2022-07-12T15:12:45;2.40;;;2.07;;
9958;SDS011;5019;48.012;7.812;2022-07-12T15:15:11;4.60;;;1.90;;
9958;SDS011;5019;48.012;7.812;2022-07-12T15:17:37;2.70;;;2.07;;
9958;SDS011;5019;48.012;7.812;2022-07-12T15:20:04;1.80;;;1.70;;
9958;SDS011;5019;48.012;7.812;2022-07-12T15:22:31;2.20;;;2.10;;
9958;SDS011;5019;48.012;7.812;2022-07-12T15:24:57;5.73;;;2.03;;
9958;SDS011;5019;48.012;7.812;2022-07-12T15:27:23;5.50;;;3.80;;
9958;SDS011;5019;48.012;7.812;2022-07-12T15:29:50;2.90;;;1.67;;
9958;SDS011;5019;48.012;7.812;2022-07-12T15:32:17;3.10;;;1.47;;
9958;SDS011;5019;48.012;7.812;2022-07-12T15:34:43;1.30;;;1.20;;
9958;SDS011;5019;48.012;7.812;2022-07-12T15:37:09;3.60;;;1.73;;
9958;SDS011;5019;48.012;7.812;2022-07-12T15:39:35;1.70;;;1.50;;
9958;SDS011;5019;48.012;7.812;2022-07-12T15:42:02;2.57;;;1.50;;
9958;SDS011;5019;48.012;7.812;2022-07-12T15:44:29;1.57;;;1.40;;
9958;SDS011;5019;48.012;7.812;2022-07-12T15:46:55;1.70;;;1.60;;
9958;SDS011;5019;48.012;7.812;2022-07-12T15:49:21;2.23;;;1.50;;
9958;SDS011;5019;48.012;7.812;2022-07-12T15:51:47;1.27;;;1.17;;